Wilberforce, Ohio
Current Conditions -  °F | °C
As of 3:56 AM on Saturday 01 Nov 2014 (Local Time) from KSGH Reporting Station
Overcast Overcast  
Wind Chill: 22°   Ceiling: 1400
Heat Index: 33°   Visibility: 10mi
Dew Point: 31°   Wind: 16mph
Humidity: 93%   Direction: 350°N
Pressure: 30.04"   Gusts: NA
Location:  39.72°N, 83.88°W
Report Text: KSGH 010756Z AUTO 35014KT 10SM OVC014 01/M01 A3004 RMK AO2 T00051005 UPE10 P0000 SLP179
Loading
Personal Weather Stations






























Interactive Weather Map
Tropical Storm Tracking
New forecast layout! Learn more

10-Day Weather Forecast

Advertisements
Track Severe Weather on mobile